SANTO DOMINGO 28 DE ABRIL DEL 2017

 

FTDR31 MDSD 281000Z
TAF  

TAF MDPP 281000Z 2812/2912 00000KT 9999 SCT016 BECMG 2813/2815 12010KT PROB30 2816/2822 7000 -RA FEW016CB BKN016 OVC070=

TAF MDST 281000Z 2812/2912 13005KT 9999 BKN016 PROB30 2812/2816 8000 -RA SCT016 BKN070=

TAF MDPC 281000Z 2812/2912 10010KT 9999 SCT018 SCT070 PROB40 2812/2818 7000 –RA BKN016 BKN070=

TAF MDBH 281000Z 2812/2912 13012KT 9999 FEW016CB FEW016 SCT080 PROB30 2818/2900 7000 -RA FEW018CB SCT016 BKN070=

TAF MDJB 281000Z 2812/2912 00000KT 9999 SCT016 PROB30 2812/2818 7000 -RA FEW016CB BKN016 BECMG 2814/2816 06006KT PROB40 TEMPO 2818/2900 6000 -RA EW016C BKN016 OVC070=

TAF MDSD 281000Z 2812/2912 04004KT 9999 SCT016 PROB30 2812/2818 7000 -RA FEW016CB BKN016 BKN070 BECM 2814/2816 14008KT PROB40 TEMPO 2818/2900 6000 –RA FEW016CB BKN016 OVC070=

TAF MDLR 281000Z 2812/2912 00000KT 9999 SCT016 PROB30 2812/2818 7000 -RA FEW016CB BKN016 BECMG 2813/2815 08008KT=

TAF MDCY 281000Z 2812/2912 00000KT 9999 SCT016 PROB30 2812/2818 7000 -RA FEW016CB BKN018 BECMG 2815/2817 09005KT=

 

MDPP AEROPUERTO INTERNACIONAL LA UNION PUERTO PLATA

MDST AEROPUERTO INTERNACIONAL DE SANTIAGO

MDPC AEROPUERTO INTERNACIONAL PUNTA CANA

MDBH AEROPUERTO INTERNACIONAL DE BARAHONA

MDJB AEROPUERTO INTERNACIONAL JOAQUIN BALAGUER

MDSD AEROPUERTO INTERNACIONAL DE LAS AMERICAS

MDLR AEROPUERTO INTERNACIONAL LA ROMANA

MDCY AEROPUERTO INTERNACIONAL DE CATEY

 

ANGEL MARTINEZ

MDPC // F.MARTINEZ

MDST // ISABEL N.